createdAt,value
2023-01-27T00:00:52.097Z,17.38
2023-01-27T00:03:20.148Z,20.13
2023-01-27T00:05:47.489Z,17.00
2023-01-27T00:08:17.911Z,17.70
2023-01-27T00:10:45.574Z,15.52
2023-01-27T00:13:29.510Z,14.07
2023-01-27T00:15:56.789Z,15.30
2023-01-27T00:18:24.829Z,16.55
2023-01-27T00:21:10.718Z,17.40
2023-01-27T00:23:56.962Z,15.70
2023-01-27T00:26:24.303Z,12.57
2023-01-27T00:28:51.481Z,13.23
2023-01-27T00:31:37.723Z,12.55
2023-01-27T00:34:11.752Z,12.90
2023-01-27T00:36:40.689Z,12.13
2023-01-27T00:39:09.540Z,13.43
2023-01-27T00:41:37.157Z,12.57
2023-01-27T00:44:06.056Z,15.13
2023-01-27T00:46:34.203Z,13.85
2023-01-27T00:49:01.474Z,11.95
2023-01-27T00:51:28.694Z,13.68
2023-01-27T00:53:56.028Z,13.25
2023-01-27T00:56:23.259Z,16.75
2023-01-27T00:58:50.485Z,17.25
2023-01-27T01:01:17.967Z,15.73
2023-01-27T01:03:45.218Z,16.88
2023-01-27T01:06:15.834Z,12.93
2023-01-27T01:11:14.752Z,13.15
2023-01-27T01:13:43.558Z,13.93
2023-01-27T01:16:21.812Z,12.82
2023-01-27T01:18:49.353Z,13.73
2023-01-27T01:21:16.788Z,14.50
2023-01-27T01:23:45.848Z,12.48
2023-01-27T01:26:15.069Z,14.45
2023-01-27T01:28:43.618Z,13.55
2023-01-27T01:31:19.987Z,10.48
2023-01-27T01:33:48.337Z,12.32
2023-01-27T01:36:19.092Z,11.88
2023-01-27T01:38:46.894Z,14.00
2023-01-27T01:41:19.511Z,12.88
2023-01-27T01:43:46.751Z,12.43
2023-01-27T01:46:14.307Z,11.65
2023-01-27T01:49:01.799Z,13.55
2023-01-27T01:51:41.327Z,12.88
2023-01-27T01:54:15.206Z,13.65
2023-01-27T01:56:51.136Z,13.13
2023-01-27T01:59:28.706Z,12.73
2023-01-27T02:01:58.128Z,13.75
2023-01-27T02:04:29.702Z,13.25
2023-01-27T02:07:22.383Z,15.60
2023-01-27T02:09:49.954Z,14.07
2023-01-27T02:12:17.137Z,14.05
2023-01-27T02:14:44.402Z,12.48
2023-01-27T02:17:14.118Z,11.82
2023-01-27T02:19:59.824Z,11.43
2023-01-27T02:22:46.619Z,12.57
2023-01-27T02:25:34.281Z,14.60
2023-01-27T02:28:06.791Z,15.68
2023-01-27T02:30:34.757Z,14.73
2023-01-27T02:33:02.037Z,13.40
2023-01-27T02:35:39.246Z,13.77
2023-01-27T02:38:07.820Z,15.52
2023-01-27T02:40:36.630Z,12.88
2023-01-27T02:43:05.389Z,12.15
2023-01-27T02:45:32.595Z,14.93
2023-01-27T02:48:00.174Z,11.57
2023-01-27T02:50:27.745Z,11.90
2023-01-27T02:52:54.855Z,14.77
2023-01-27T02:55:22.224Z,13.18
2023-01-27T02:57:49.366Z,15.68
2023-01-27T03:00:17.117Z,14.38
2023-01-27T03:02:44.389Z,9.00
2023-01-27T03:05:11.991Z,11.45
2023-01-27T03:07:39.415Z,11.48
2023-01-27T03:10:07.031Z,12.00
2023-01-27T03:12:34.355Z,10.30
2023-01-27T03:15:20.150Z,9.30
2023-01-27T03:18:05.999Z,11.75
2023-01-27T03:20:33.122Z,11.00
2023-01-27T03:23:00.412Z,10.52
2023-01-27T03:25:27.752Z,11.05
2023-01-27T03:27:54.938Z,13.05
2023-01-27T03:30:22.233Z,12.30
2023-01-27T03:32:49.491Z,14.23
2023-01-27T03:35:17.920Z,12.18
2023-01-27T03:38:03.755Z,13.35
2023-01-27T03:40:49.323Z,11.07
2023-01-27T03:43:35.095Z,9.65
2023-01-27T03:46:20.695Z,12.20
2023-01-27T03:48:55.569Z,12.02
2023-01-27T03:51:25.005Z,8.38
2023-01-27T03:53:52.735Z,11.70
2023-01-27T03:56:21.846Z,11.52
2023-01-27T03:58:50.845Z,10.48
2023-01-27T04:01:23.505Z,10.85
2023-01-27T04:04:10.020Z,10.10
2023-01-27T04:06:55.619Z,9.52
2023-01-27T04:09:24.721Z,12.52
2023-01-27T04:11:55.247Z,9.38
2023-01-27T04:16:55.801Z,9.43
2023-01-27T04:19:23.385Z,9.93
2023-01-27T04:21:50.642Z,9.98
2023-01-27T04:24:22.830Z,9.40
2023-01-27T04:26:58.231Z,8.95
2023-01-27T04:29:28.588Z,12.20
2023-01-27T04:31:58.116Z,10.20
2023-01-27T04:34:26.763Z,10.50
2023-01-27T04:36:54.410Z,10.23
2023-01-27T04:39:21.591Z,12.18
2023-01-27T04:41:49.921Z,9.55
2023-01-27T04:44:20.440Z,10.23
2023-01-27T04:46:48.211Z,10.38
2023-01-27T04:49:15.302Z,10.35
2023-01-27T04:51:42.553Z,9.40
2023-01-27T04:54:09.831Z,7.97
2023-01-27T04:56:39.754Z,9.65
2023-01-27T04:59:10.652Z,10.35
2023-01-27T05:01:37.883Z,7.53
2023-01-27T05:04:05.609Z,8.40
2023-01-27T05:06:33.503Z,10.98
2023-01-27T05:09:01.709Z,11.40
2023-01-27T05:11:29.005Z,9.40
2023-01-27T05:13:56.181Z,11.07
2023-01-27T05:16:25.759Z,9.07
2023-01-27T05:18:53.658Z,9.83
2023-01-27T05:21:24.104Z,8.15
2023-01-27T05:23:51.660Z,11.50
2023-01-27T05:26:24.979Z,7.10
2023-01-27T05:28:53.719Z,7.18
2023-01-27T05:31:27.402Z,9.80
2023-01-27T05:33:56.185Z,7.10
2023-01-27T05:36:25.735Z,8.85
2023-01-27T05:38:55.903Z,9.65
2023-01-27T05:41:23.431Z,8.00
2023-01-27T05:43:55.486Z,7.82
2023-01-27T05:46:28.078Z,8.23
2023-01-27T05:48:57.754Z,7.18
2023-01-27T05:51:26.725Z,7.70
2023-01-27T05:53:55.954Z,9.23
2023-01-27T05:56:24.022Z,7.40
2023-01-27T05:58:51.134Z,8.63
2023-01-27T06:01:20.855Z,6.72
2023-01-27T06:03:49.030Z,6.83
2023-01-27T06:06:18.462Z,7.53
2023-01-27T06:08:46.442Z,6.47
2023-01-27T06:11:14.317Z,7.45
2023-01-27T06:13:41.953Z,7.15
2023-01-27T06:16:12.532Z,6.25
2023-01-27T06:18:40.069Z,9.18
2023-01-27T06:21:10.195Z,5.72
2023-01-27T06:23:38.397Z,5.80
2023-01-27T06:26:09.706Z,7.00
2023-01-27T06:28:40.482Z,5.30
2023-01-27T06:31:16.375Z,4.85
2023-01-27T06:33:44.068Z,4.85
2023-01-27T06:36:17.041Z,5.40
2023-01-27T06:38:46.384Z,1.65
2023-01-27T06:41:13.594Z,2.00
2023-01-27T06:43:40.795Z,1.65
2023-01-27T06:46:08.277Z,1.38
2023-01-27T06:48:35.778Z,1.83
2023-01-27T06:51:03.150Z,1.33
2023-01-27T06:53:31.684Z,0.98
2023-01-27T06:56:01.055Z,1.63
2023-01-27T06:58:28.956Z,1.52
2023-01-27T07:00:57.224Z,1.05
2023-01-27T07:03:24.787Z,1.73
2023-01-27T07:05:52.844Z,1.75
2023-01-27T07:08:20.338Z,1.58
2023-01-27T07:10:47.633Z,2.60
2023-01-27T07:13:15.763Z,1.05
2023-01-27T07:15:43.384Z,1.30
2023-01-27T07:18:12.268Z,1.10
2023-01-27T07:20:39.619Z,1.02
2023-01-27T07:23:07.100Z,1.10
2023-01-27T07:25:35.252Z,0.80
2023-01-27T07:28:03.792Z,1.02
2023-01-27T07:30:32.005Z,1.52
2023-01-27T07:33:12.769Z,0.80
2023-01-27T07:38:07.540Z,0.75
2023-01-27T07:40:35.272Z,1.50
2023-01-27T07:43:02.784Z,0.82
2023-01-27T07:45:30.402Z,0.60
2023-01-27T07:48:02.069Z,0.50
2023-01-27T07:50:29.745Z,0.80
2023-01-27T07:53:01.180Z,1.35
2023-01-27T07:55:29.115Z,0.90
2023-01-27T07:57:57.436Z,0.70
2023-01-27T08:00:25.082Z,1.15
2023-01-27T08:02:55.852Z,1.02
2023-01-27T08:05:23.291Z,0.80
2023-01-27T08:07:51.453Z,0.80
2023-01-27T08:10:19.461Z,0.75
2023-01-27T08:12:47.165Z,0.70
2023-01-27T08:15:15.529Z,0.93
2023-01-27T08:17:44.267Z,0.82
2023-01-27T08:20:12.564Z,1.10
2023-01-27T08:22:40.207Z,0.90
2023-01-27T08:25:07.912Z,1.40
2023-01-27T08:27:35.142Z,1.23
2023-01-27T08:30:02.419Z,1.20
2023-01-27T08:32:29.706Z,0.77
2023-01-27T08:34:56.883Z,1.40
2023-01-27T08:37:24.145Z,1.00
2023-01-27T08:39:51.325Z,1.05
2023-01-27T08:42:18.584Z,1.02
2023-01-27T08:44:46.273Z,0.65
2023-01-27T08:47:13.470Z,1.10
2023-01-27T08:49:40.723Z,0.95
2023-01-27T08:52:07.924Z,0.73
2023-01-27T08:54:35.315Z,1.10
2023-01-27T08:57:02.506Z,0.73
2023-01-27T08:59:29.816Z,0.70
2023-01-27T09:01:56.973Z,0.45
2023-01-27T09:04:24.272Z,0.77
2023-01-27T09:06:52.082Z,1.25
2023-01-27T09:09:19.320Z,0.57
2023-01-27T09:11:47.485Z,0.90
2023-01-27T09:14:14.866Z,0.70
2023-01-27T09:16:42.163Z,0.70
2023-01-27T09:19:09.476Z,0.70
2023-01-27T09:21:36.838Z,0.57
2023-01-27T09:24:04.191Z,0.80
2023-01-27T09:26:31.337Z,0.73
2023-01-27T09:28:58.617Z,1.23
2023-01-27T09:31:25.870Z,0.75
2023-01-27T09:33:53.080Z,0.80
2023-01-27T09:36:22.251Z,0.70
2023-01-27T09:39:02.412Z,0.70
2023-01-27T09:41:58.557Z,1.45
2023-01-27T09:44:56.315Z,0.60
2023-01-27T09:48:12.531Z,0.55
2023-01-27T09:51:04.238Z,0.68
2023-01-27T09:53:56.059Z,0.55
2023-01-27T09:56:49.820Z,0.82
2023-01-27T10:00:00.030Z,0.77
2023-01-27T10:03:14.634Z,0.77
2023-01-27T10:05:56.674Z,1.50
2023-01-27T10:08:57.468Z,0.73
2023-01-27T10:14:12.928Z,0.68
2023-01-27T10:16:53.585Z,1.48
2023-01-27T10:22:41.458Z,5.30
2023-01-27T10:25:38.283Z,7.05
2023-01-27T10:28:14.176Z,3.72
2023-01-27T10:31:00.238Z,2.70
2023-01-27T10:33:43.444Z,1.67
2023-01-27T10:36:34.231Z,1.02
2023-01-27T10:41:58.410Z,0.80
2023-01-27T10:44:40.591Z,0.82
2023-01-27T10:47:32.531Z,2.67
2023-01-27T10:50:07.550Z,2.25
2023-01-27T10:52:46.882Z,2.40
2023-01-27T10:55:26.328Z,3.00
2023-01-27T10:58:40.060Z,3.83
2023-01-27T11:01:20.959Z,2.42
2023-01-27T11:04:01.077Z,5.10
2023-01-27T11:06:43.544Z,1.95
2023-01-27T11:09:30.936Z,1.80
2023-01-27T11:12:04.646Z,1.45
2023-01-27T11:14:49.536Z,4.50
2023-01-27T11:17:31.412Z,24.98
2023-01-27T11:20:23.476Z,1.60
2023-01-27T11:23:15.166Z,1.65
2023-01-27T11:25:45.225Z,2.92
2023-01-27T11:28:15.528Z,3.15
2023-01-27T11:31:20.060Z,0.90
2023-01-27T11:33:58.743Z,4.88
2023-01-27T11:36:26.718Z,1.27
2023-01-27T11:38:55.846Z,1.30
2023-01-27T11:41:23.510Z,0.98
2023-01-27T11:43:51.083Z,1.95
2023-01-27T11:46:24.596Z,0.85
2023-01-27T11:48:56.165Z,1.45
2023-01-27T11:51:31.924Z,1.35
2023-01-27T11:54:42.243Z,1.38
2023-01-27T11:57:22.634Z,1.27
2023-01-27T12:00:24.279Z,0.85
2023-01-27T12:03:03.686Z,1.92
2023-01-27T12:05:34.752Z,1.17
2023-01-27T12:08:04.514Z,2.28
2023-01-27T12:10:33.572Z,1.30
2023-01-27T12:13:20.564Z,1.02
2023-01-27T12:15:58.980Z,4.25
2023-01-27T12:18:27.031Z,5.60
2023-01-27T12:21:06.650Z,12.68
2023-01-27T12:23:55.118Z,5.55
2023-01-27T12:26:39.429Z,5.22
2023-01-27T12:29:14.889Z,3.92
2023-01-27T12:31:48.608Z,4.88
2023-01-27T12:34:37.660Z,2.28
2023-01-27T12:37:08.033Z,3.55
2023-01-27T12:39:53.475Z,2.25
2023-01-27T12:42:39.944Z,7.90
2023-01-27T12:45:23.876Z,1.85
2023-01-27T12:48:14.671Z,25.05
2023-01-27T12:50:43.059Z,6.45
2023-01-27T12:53:14.232Z,1.20
2023-01-27T12:56:00.366Z,4.82
2023-01-27T12:59:05.849Z,1.55
2023-01-27T13:01:37.590Z,2.85
2023-01-27T13:04:07.304Z,1.55
2023-01-27T13:06:47.841Z,2.38
2023-01-27T13:09:34.111Z,5.75
2023-01-27T13:12:24.149Z,1.75
2023-01-27T13:14:59.610Z,3.20
2023-01-27T13:17:31.273Z,1.83
2023-01-27T13:20:24.313Z,1.48
2023-01-27T13:23:02.707Z,0.82
2023-01-27T13:25:39.230Z,1.80
2023-01-27T13:28:09.368Z,2.35
2023-01-27T13:30:45.102Z,1.17
2023-01-27T13:33:43.881Z,1.27
2023-01-27T13:36:35.615Z,2.80
2023-01-27T13:39:21.937Z,2.50
2023-01-27T13:42:18.860Z,2.03
2023-01-27T13:44:51.714Z,1.33
2023-01-27T13:47:35.566Z,1.23
2023-01-27T13:50:29.081Z,2.45
2023-01-27T13:52:58.256Z,1.35
2023-01-27T13:55:50.867Z,1.23
2023-01-27T13:58:51.558Z,1.30
2023-01-27T14:01:39.935Z,0.93
2023-01-27T14:04:41.119Z,0.88
2023-01-27T14:07:29.373Z,1.90
2023-01-27T14:10:24.735Z,0.95
2023-01-27T14:13:18.864Z,1.25
2023-01-27T14:16:02.427Z,1.23
2023-01-27T14:18:44.870Z,1.17
2023-01-27T14:21:42.052Z,1.27
2023-01-27T14:24:37.448Z,1.08
2023-01-27T14:27:13.635Z,0.85
2023-01-27T14:29:51.075Z,1.35
2023-01-27T14:32:37.563Z,1.35
2023-01-27T14:35:22.960Z,1.10
2023-01-27T14:38:05.065Z,2.88
2023-01-27T14:40:47.274Z,1.45
2023-01-27T14:43:26.304Z,1.38
2023-01-27T14:46:16.452Z,1.45
2023-01-27T14:49:12.515Z,1.30
2023-01-27T14:51:42.466Z,1.13
2023-01-27T14:54:29.887Z,0.95
2023-01-27T14:57:33.620Z,1.33
2023-01-27T15:00:17.056Z,2.15
2023-01-27T15:03:25.733Z,3.90
2023-01-27T15:06:26.596Z,2.53
2023-01-27T15:09:06.584Z,8.93
2023-01-27T15:11:48.458Z,3.08
2023-01-27T15:14:59.484Z,1.60
2023-01-27T15:17:32.664Z,8.40
2023-01-27T15:20:25.937Z,1.13
2023-01-27T15:23:12.595Z,1.98
2023-01-27T15:25:55.696Z,2.17
2023-01-27T15:28:31.026Z,2.13
2023-01-27T15:31:19.805Z,2.22
2023-01-27T15:34:22.342Z,1.48
2023-01-27T15:37:12.456Z,1.05
2023-01-27T15:40:05.760Z,1.65
2023-01-27T15:42:54.144Z,1.05
2023-01-27T15:45:35.386Z,1.00
2023-01-27T15:48:08.642Z,1.65
2023-01-27T15:50:39.864Z,0.95
2023-01-27T15:53:23.055Z,1.30
2023-01-27T15:55:54.141Z,1.42
2023-01-27T15:58:40.915Z,1.65
2023-01-27T16:01:24.410Z,1.58
2023-01-27T16:03:53.268Z,1.38
2023-01-27T16:06:26.215Z,0.90
2023-01-27T16:09:06.474Z,1.63
2023-01-27T16:11:36.736Z,1.17
2023-01-27T16:14:16.684Z,1.40
2023-01-27T16:16:55.626Z,1.73
2023-01-27T16:19:39.084Z,1.70
2023-01-27T16:22:12.574Z,2.53
2023-01-27T16:24:56.366Z,1.33
2023-01-27T16:27:23.573Z,2.00
2023-01-27T16:29:58.347Z,0.95
2023-01-27T16:32:35.909Z,3.03
2023-01-27T16:35:07.205Z,0.77
2023-01-27T16:37:38.248Z,0.90
2023-01-27T16:40:14.269Z,1.52
2023-01-27T16:42:52.970Z,1.30
2023-01-27T16:45:23.502Z,0.90
2023-01-27T16:48:05.356Z,1.13
2023-01-27T16:50:34.747Z,1.85
2023-01-27T16:53:04.047Z,3.17
2023-01-27T16:55:31.757Z,6.25
2023-01-27T16:58:01.337Z,7.95
2023-01-27T17:00:33.067Z,7.78
2023-01-27T17:03:04.456Z,3.05
2023-01-27T17:05:31.745Z,2.65
2023-01-27T17:08:14.630Z,1.55
2023-01-27T17:11:07.346Z,1.20
2023-01-27T17:13:45.480Z,0.70
2023-01-27T17:16:24.136Z,1.88
2023-01-27T17:18:53.205Z,0.70
2023-01-27T17:21:38.492Z,1.20
2023-01-27T17:24:17.284Z,1.52
2023-01-27T17:26:48.323Z,2.35
2023-01-27T17:29:21.746Z,0.90
2023-01-27T17:31:49.891Z,0.70
2023-01-27T17:34:19.905Z,0.93
2023-01-27T17:37:07.336Z,1.00
2023-01-27T17:39:38.221Z,1.42
2023-01-27T17:42:05.989Z,1.08
2023-01-27T17:44:33.743Z,1.50
2023-01-27T17:47:04.103Z,0.60
2023-01-27T17:49:32.169Z,0.82
2023-01-27T17:52:00.576Z,3.90
2023-01-27T17:54:38.237Z,5.30
2023-01-27T17:57:22.988Z,7.07
2023-01-27T18:00:33.736Z,2.53
2023-01-27T18:03:04.969Z,1.08
2023-01-27T18:05:35.548Z,0.43
2023-01-27T18:10:34.299Z,1.40
2023-01-27T18:13:19.581Z,0.77
2023-01-27T18:15:59.424Z,1.38
2023-01-27T18:18:34.782Z,1.92
2023-01-27T18:21:20.620Z,2.08
2023-01-27T18:23:51.423Z,1.15
2023-01-27T18:26:41.205Z,1.20
2023-01-27T18:29:33.838Z,3.22
2023-01-27T18:32:13.286Z,2.05
2023-01-27T18:35:19.038Z,1.33
2023-01-27T18:37:53.907Z,0.82
2023-01-27T18:40:32.938Z,1.77
2023-01-27T18:43:01.150Z,1.13
2023-01-27T18:45:28.414Z,0.90
2023-01-27T18:47:56.646Z,0.63
2023-01-27T18:50:25.808Z,0.68
2023-01-27T18:52:53.991Z,0.75
2023-01-27T18:55:29.888Z,3.13
2023-01-27T18:57:58.764Z,5.68
2023-01-27T19:00:38.349Z,6.70
2023-01-27T19:03:12.002Z,44.10
2023-01-27T19:05:40.605Z,8.70
2023-01-27T19:08:13.434Z,11.75
2023-01-27T19:10:40.736Z,1.63
2023-01-27T19:13:09.265Z,4.97
2023-01-27T19:15:46.111Z,3.10
2023-01-27T19:18:26.298Z,5.32
2023-01-27T19:20:53.687Z,13.27
2023-01-27T19:23:21.883Z,7.97
2023-01-27T19:25:52.897Z,2.88
2023-01-27T19:28:32.196Z,1.30
2023-01-27T19:31:00.430Z,2.55
2023-01-27T19:33:29.826Z,2.55
2023-01-27T19:36:10.901Z,2.92
2023-01-27T19:38:39.215Z,2.42
2023-01-27T19:41:07.777Z,1.73
2023-01-27T19:43:36.146Z,1.20
2023-01-27T19:46:06.693Z,0.85
2023-01-27T19:51:00.795Z,1.98
2023-01-27T19:53:27.945Z,0.85
2023-01-27T19:55:58.193Z,0.80
2023-01-27T19:58:28.268Z,0.90
2023-01-27T20:00:56.538Z,1.73
2023-01-27T20:03:24.705Z,1.70
2023-01-27T20:05:52.208Z,3.22
2023-01-27T20:08:21.463Z,1.48
2023-01-27T20:10:49.554Z,2.03
2023-01-27T20:13:18.895Z,3.53
2023-01-27T20:15:47.227Z,1.95
2023-01-27T20:18:18.579Z,1.65
2023-01-27T20:20:46.965Z,0.80
2023-01-27T20:23:17.479Z,1.20
2023-01-27T20:25:44.671Z,1.30
2023-01-27T20:28:13.294Z,5.78
2023-01-27T20:30:41.721Z,6.00
2023-01-27T20:33:08.897Z,2.92
2023-01-27T20:35:37.992Z,1.88
2023-01-27T20:38:05.181Z,1.10
2023-01-27T20:40:32.473Z,1.63
2023-01-27T20:43:00.944Z,1.65
2023-01-27T20:45:28.069Z,1.58
2023-01-27T20:47:56.276Z,4.28
2023-01-27T20:50:26.078Z,1.50
2023-01-27T20:52:53.837Z,1.42
2023-01-27T20:55:20.995Z,1.50
2023-01-27T20:57:48.726Z,1.83
2023-01-27T21:00:18.899Z,3.13
2023-01-27T21:02:46.372Z,6.40
2023-01-27T21:05:14.141Z,3.70
2023-01-27T21:07:41.826Z,2.95
2023-01-27T21:10:09.505Z,4.53
2023-01-27T21:12:36.666Z,2.47
2023-01-27T21:15:09.927Z,3.65
2023-01-27T21:17:37.534Z,2.50
2023-01-27T21:20:05.360Z,3.97
2023-01-27T21:22:34.728Z,2.75
2023-01-27T21:25:01.891Z,1.33
2023-01-27T21:27:29.050Z,2.35
2023-01-27T21:29:56.572Z,2.22
2023-01-27T21:32:23.654Z,3.03
2023-01-27T21:34:50.868Z,3.85
2023-01-27T21:37:17.997Z,3.65
2023-01-27T21:39:45.179Z,2.08
2023-01-27T21:42:14.568Z,1.73
2023-01-27T21:44:59.893Z,1.50
2023-01-27T21:47:27.199Z,2.15
2023-01-27T21:50:06.485Z,2.70
2023-01-27T21:52:33.860Z,1.23
2023-01-27T21:55:02.700Z,1.83
2023-01-27T21:57:30.422Z,2.03
2023-01-27T21:59:57.762Z,2.38
2023-01-27T22:02:25.571Z,2.78
2023-01-27T22:04:52.848Z,3.28
2023-01-27T22:07:20.436Z,2.03
2023-01-27T22:09:48.140Z,2.33
2023-01-27T22:12:16.759Z,2.00
2023-01-27T22:14:44.271Z,2.13
2023-01-27T22:17:11.826Z,2.20
2023-01-27T22:19:41.617Z,1.95
2023-01-27T22:22:12.506Z,2.27
2023-01-27T22:24:39.726Z,2.15
2023-01-27T22:27:06.910Z,2.67
2023-01-27T22:29:34.608Z,2.80
2023-01-27T22:32:01.852Z,2.63
2023-01-27T22:34:28.977Z,3.28
2023-01-27T22:36:56.144Z,1.80
2023-01-27T22:39:23.784Z,1.85
2023-01-27T22:41:51.191Z,2.30
2023-01-27T22:44:18.866Z,2.00
2023-01-27T22:46:47.613Z,1.70
2023-01-27T22:49:15.131Z,2.40
2023-01-27T22:51:42.523Z,2.67
2023-01-27T22:54:10.673Z,1.70
2023-01-27T22:56:37.834Z,1.80
2023-01-27T22:59:05.391Z,2.30
2023-01-27T23:01:32.784Z,1.83
2023-01-27T23:04:00.039Z,1.90
2023-01-27T23:06:27.203Z,1.77
2023-01-27T23:08:54.361Z,3.17
2023-01-27T23:11:21.630Z,1.83
2023-01-27T23:13:48.851Z,1.63
2023-01-27T23:16:16.457Z,3.00
2023-01-27T23:18:43.788Z,1.52
2023-01-27T23:21:11.679Z,4.85
2023-01-27T23:23:38.867Z,4.25
2023-01-27T23:26:08.165Z,2.28
2023-01-27T23:28:37.581Z,2.38
2023-01-27T23:31:07.716Z,2.92
2023-01-27T23:33:36.955Z,1.88
2023-01-27T23:36:04.609Z,1.67
2023-01-27T23:38:33.964Z,1.70
2023-01-27T23:41:03.477Z,2.17
2023-01-27T23:43:33.877Z,2.00
2023-01-27T23:46:01.292Z,3.08
2023-01-27T23:48:29.846Z,1.55
2023-01-27T23:50:57.188Z,2.30
2023-01-27T23:53:24.472Z,2.13
2023-01-27T23:55:56.845Z,1.45
2023-01-27T23:58:24.677Z,1.95
